Strona główna
METAR-TAF:

METAR-TAF

Lotnisko :

Lorain County Regional Airport

Lorain / Elyria, Ohio, Stany Zjednoczone

Szerokość geograficzna: 41-20-46N, Długość geograficzna: 082-10-46W, wysokość: 242 m

Aktualna obserwacja pogody

Raport powstał 1 godzina i 8 minut temu, godzina 21:53 UTC
Wiatr 5 kt od wschodnio-południowy wschód
Temperatura -2°C
Wilgotność 54%
Ciśnienie 1038 hPa
Widzialność: 16.1 km
bezchmurnie

METAR: KLPR 172153Z AUTO 11005KT 10SM CLR M02/M10 A3066 RMK AO2 SLP395 T10221100

czas: 18:01 (23:01 UTC)


TAF: brakujący

Obserwacja i prognoza pogody dla ponad 4000 lotnisk (raport METAR i TAF).

Dostępne stacje oznaczono żółtymi i czerwonymi punktami na mapie.

Najedź kursorem aby zobaczyć nazwę stacji.

Kliknij aby zobaczyć obserwacje i prognozy pogody.

Aby zmienić mapę: kliknij na zielony przycisk z czarnym krzyżykiem, aby powiększyć; na zielony przycisk z myślnikiem, aby pomniejszyć; na zielone strzałki, aby przejść do map sąsiednich.


METAR-TAF: